createdAt,value
2017-08-22T19:25:05.955Z,265
2017-08-22T19:25:34.008Z,250
2017-08-22T19:26:02.065Z,240
2017-08-22T19:26:30.912Z,230
2017-08-22T19:26:59.752Z,225
2017-08-22T19:27:28.497Z,230
2017-08-22T19:27:57.379Z,225
2017-08-22T19:28:26.080Z,220
2017-08-22T19:28:54.047Z,215
2017-08-22T19:29:22.706Z,215
2017-08-22T19:29:50.776Z,220
2017-08-22T19:30:18.852Z,215
2017-08-22T19:30:46.916Z,210
2017-08-22T19:31:15.772Z,215
2017-08-22T19:31:43.826Z,215
2017-08-22T19:32:11.795Z,215
2017-08-22T19:32:40.482Z,210
2017-08-22T19:33:08.360Z,215
2017-08-22T19:33:36.429Z,220
2017-08-22T19:34:04.499Z,225
2017-08-22T19:34:32.593Z,225
2017-08-22T19:35:01.277Z,220
2017-08-22T19:35:29.268Z,225
2017-08-22T19:35:58.413Z,215
2017-08-22T19:36:27.610Z,215
2017-08-22T19:36:56.656Z,220
2017-08-22T19:37:25.478Z,215
2017-08-22T19:37:54.602Z,210
2017-08-22T19:38:23.387Z,205
2017-08-22T19:38:52.004Z,200
2017-08-22T19:39:20.581Z,200
2017-08-22T19:39:51.299Z,195
2017-08-22T19:40:19.484Z,195
2017-08-22T19:40:47.560Z,190
2017-08-22T19:41:16.433Z,190
2017-08-22T19:41:44.329Z,185
2017-08-22T19:42:12.297Z,185
2017-08-22T19:42:40.294Z,190
2017-08-22T19:43:08.359Z,195
2017-08-22T19:43:36.335Z,195
2017-08-22T19:44:04.412Z,195
2017-08-22T19:44:33.296Z,195
2017-08-22T19:45:01.748Z,195
2017-08-22T19:45:29.528Z,195
2017-08-22T19:45:58.404Z,195
2017-08-22T19:46:26.388Z,200
2017-08-22T19:46:54.461Z,200
2017-08-22T19:47:22.444Z,195
2017-08-22T19:47:50.495Z,195
2017-08-22T19:48:20.050Z,195
2017-08-22T19:48:48.017Z,200
2017-08-22T19:49:15.881Z,190
2017-08-22T19:49:43.738Z,190
2017-08-22T19:50:11.704Z,195
2017-08-22T19:50:39.684Z,195
2017-08-22T19:51:07.680Z,195
2017-08-22T19:51:35.745Z,195
2017-08-22T19:52:03.731Z,185
2017-08-22T19:52:31.785Z,180
2017-08-22T19:53:01.433Z,180
2017-08-22T19:53:30.284Z,180
2017-08-22T19:53:58.279Z,180
2017-08-22T19:54:27.038Z,185
2017-08-22T19:54:55.086Z,185
2017-08-22T19:55:23.153Z,190
2017-08-22T19:55:51.211Z,190
2017-08-22T19:56:19.086Z,190
2017-08-22T19:56:47.134Z,190
2017-08-22T19:57:15.007Z,190
2017-08-22T19:57:43.304Z,185
2017-08-22T19:58:12.134Z,180
2017-08-22T19:58:40.111Z,180
2017-08-22T19:59:08.084Z,180
2017-08-22T19:59:36.050Z,180
2017-08-22T20:00:04.917Z,180
2017-08-22T20:00:32.880Z,180
2017-08-22T20:01:01.322Z,185
2017-08-22T20:01:29.351Z,180
2017-08-22T20:01:58.969Z,165
2017-08-22T20:02:26.845Z,160
2017-08-22T20:02:55.674Z,150
2017-08-22T20:04:30.755Z,155
2017-08-22T20:04:59.583Z,155
2017-08-22T20:05:28.337Z,160
2017-08-22T20:05:56.295Z,160
2017-08-22T20:06:24.362Z,165
2017-08-22T20:06:53.207Z,160
2017-08-22T20:07:21.967Z,160
2017-08-22T20:07:49.925Z,160
2017-08-22T20:08:17.867Z,165
2017-08-22T20:08:45.826Z,175
2017-08-22T20:09:13.877Z,180
2017-08-22T20:09:41.934Z,200
2017-08-22T20:10:10.184Z,220
2017-08-22T20:10:38.152Z,240
2017-08-22T20:11:06.199Z,250
2017-08-22T20:11:34.938Z,260
2017-08-22T20:12:03.793Z,260
2017-08-22T20:12:31.859Z,255
2017-08-22T20:12:59.911Z,260
2017-08-22T20:13:27.976Z,255
2017-08-22T20:13:55.958Z,255
2017-08-22T20:14:24.055Z,260
2017-08-22T20:14:52.115Z,250
2017-08-22T20:15:20.178Z,240
2017-08-22T20:15:48.919Z,225
2017-08-22T20:16:16.974Z,215
2017-08-22T20:16:44.944Z,200
2017-08-22T20:17:13.006Z,195
2017-08-22T20:17:42.631Z,190
2017-08-22T20:18:11.480Z,185
2017-08-22T20:18:39.457Z,185
2017-08-22T20:19:07.674Z,180
2017-08-22T20:19:35.642Z,180
2017-08-22T20:20:03.701Z,180
2017-08-22T20:20:31.715Z,175
2017-08-22T20:20:59.680Z,175
2017-08-22T20:21:27.623Z,170
2017-08-22T20:21:55.484Z,165
2017-08-22T20:22:23.342Z,165
2017-08-22T20:22:51.289Z,160
2017-08-22T20:23:19.598Z,165
2017-08-22T20:23:47.554Z,165
2017-08-22T20:24:16.344Z,165
2017-08-22T20:24:45.083Z,155
2017-08-22T20:25:13.254Z,150
2017-08-22T20:25:41.307Z,140
2017-08-22T20:26:09.382Z,125
2017-08-22T20:26:38.224Z,115
2017-08-22T20:27:06.282Z,105
2017-08-22T20:27:34.333Z,95
2017-08-22T20:28:02.222Z,90
2017-08-22T20:28:30.189Z,80
2017-08-22T20:28:58.287Z,75
2017-08-22T20:29:26.326Z,70
2017-08-22T20:29:55.171Z,70
2017-08-22T20:30:24.014Z,70
2017-08-22T20:30:51.978Z,70
2017-08-22T20:31:20.828Z,65
2017-08-22T20:31:48.885Z,65
2017-08-22T20:32:16.952Z,60
2017-08-22T20:32:45.024Z,60
2017-08-22T20:33:13.084Z,55
2017-08-22T20:33:41.832Z,55
2017-08-22T20:34:10.557Z,50
2017-08-22T20:34:38.526Z,50
2017-08-22T20:35:07.363Z,50
2017-08-22T20:35:36.103Z,45
2017-08-22T20:36:04.151Z,45
2017-08-22T20:36:32.211Z,45
2017-08-22T20:37:00.951Z,40
2017-08-22T20:37:29.692Z,40
2017-08-22T20:37:58.470Z,35
2017-08-22T20:38:27.306Z,35
2017-08-22T20:38:55.347Z,35
2017-08-22T20:39:23.323Z,30
2017-08-22T20:39:51.288Z,30
2017-08-22T20:40:19.402Z,30
2017-08-22T20:40:48.229Z,30
2017-08-22T20:41:16.183Z,25
2017-08-22T20:41:45.800Z,25
2017-08-22T20:42:14.531Z,25
2017-08-22T20:43:48.742Z,20
2017-08-22T20:44:16.809Z,20
2017-08-22T20:44:44.863Z,20
2017-08-22T20:45:12.914Z,20
2017-08-22T20:45:42.426Z,20
2017-08-22T20:46:10.546Z,15
2017-08-22T20:46:38.436Z,15
2017-08-22T20:47:06.397Z,15
2017-08-22T20:47:35.225Z,15
2017-08-22T20:48:03.291Z,15
2017-08-22T20:48:32.130Z,15
2017-08-22T20:49:00.098Z,15
2017-08-22T20:49:28.078Z,10
2017-08-22T20:49:56.123Z,10
2017-08-22T20:50:24.066Z,10
2017-08-22T20:50:52.889Z,10
2017-08-22T20:51:21.625Z,10
2017-08-22T20:51:50.458Z,10
2017-08-22T20:52:18.409Z,10
2017-08-22T20:52:46.477Z,5
2017-08-22T20:53:14.449Z,5
2017-08-22T20:53:42.415Z,5
2017-08-22T20:54:10.382Z,5
2017-08-22T20:54:38.525Z,5
2017-08-22T20:55:06.477Z,5
2017-08-22T20:55:37.019Z,5
2017-08-22T20:56:06.283Z,5
2017-08-22T20:56:34.252Z,5
2017-08-22T20:57:02.114Z,5
2017-08-22T20:57:31.640Z,5
2017-08-22T20:57:59.599Z,5
2017-08-22T20:58:27.659Z,5
2017-08-22T20:58:55.713Z,0
2017-08-22T20:59:23.762Z,0
2017-08-22T20:59:51.807Z,0
2017-08-22T21:00:19.669Z,0
2017-08-22T21:00:48.497Z,0
2017-08-22T21:01:17.331Z,0
2017-08-22T21:01:45.287Z,0
2017-08-22T21:02:13.148Z,0
2017-08-22T21:02:40.922Z,0
2017-08-22T21:03:08.884Z,0
2017-08-22T21:03:37.726Z,0
2017-08-22T21:04:07.338Z,0
2017-08-22T21:04:36.168Z,0
2017-08-22T21:05:04.222Z,0
2017-08-22T21:05:32.279Z,0
2017-08-22T21:06:01.119Z,0
2017-08-22T21:06:29.961Z,0
2017-08-22T21:06:58.012Z,0
2017-08-22T21:07:26.758Z,0
2017-08-22T21:07:54.766Z,0
2017-08-22T21:08:22.822Z,0
2017-08-22T21:08:50.788Z,0
2017-08-22T21:09:18.840Z,0
2017-08-22T21:09:46.994Z,0
2017-08-22T21:10:15.037Z,0
2017-08-22T21:10:43.155Z,0
2017-08-22T21:11:11.040Z,0
2017-08-22T21:11:39.876Z,0
2017-08-22T21:12:07.843Z,0
2017-08-22T21:12:35.797Z,0
2017-08-22T21:13:03.834Z,0
2017-08-22T21:13:32.652Z,0
2017-08-22T21:14:00.697Z,0
2017-08-22T21:14:28.742Z,0
2017-08-22T21:14:56.693Z,0
2017-08-22T21:15:25.532Z,0
2017-08-22T21:15:53.496Z,0
2017-08-22T21:16:21.456Z,0
2017-08-22T21:16:50.194Z,0
2017-08-22T21:17:19.045Z,0
2017-08-22T21:17:47.881Z,0
2017-08-22T21:18:15.929Z,0
2017-08-22T21:18:44.000Z,0
2017-08-22T21:19:12.844Z,0
2017-08-22T21:19:40.884Z,0
2017-08-22T21:20:09.707Z,0
2017-08-22T21:20:37.757Z,0
2017-08-22T21:21:06.589Z,0
2017-08-22T21:21:35.414Z,0
2017-08-22T21:23:10.772Z,0
2017-08-22T21:23:38.824Z,0
2017-08-22T21:24:06.865Z,0
2017-08-22T21:24:35.701Z,0
2017-08-22T21:25:03.742Z,0
2017-08-22T21:25:31.889Z,0
2017-08-22T21:25:59.933Z,0
2017-08-22T21:26:27.890Z,0
2017-08-22T21:26:56.711Z,0
2017-08-22T21:27:24.684Z,0
2017-08-22T21:27:52.731Z,0
2017-08-22T21:28:20.779Z,0
2017-08-22T21:28:48.833Z,0
2017-08-22T21:29:16.878Z,0
2017-08-22T21:29:44.737Z,0
2017-08-22T21:30:13.555Z,0
2017-08-22T21:30:41.429Z,0
2017-08-22T21:31:09.683Z,0
2017-08-22T21:31:37.722Z,0
2017-08-22T21:32:05.774Z,0
2017-08-22T21:32:34.521Z,0
2017-08-22T21:33:03.358Z,0
2017-08-22T21:33:31.406Z,0
2017-08-22T21:33:59.456Z,0
2017-08-22T21:34:28.283Z,0
2017-08-22T21:34:57.110Z,0
2017-08-22T21:35:25.187Z,0
2017-08-22T21:35:53.147Z,0
2017-08-22T21:36:21.095Z,0
2017-08-22T21:36:48.871Z,0
2017-08-22T21:37:16.838Z,0
2017-08-22T21:37:44.809Z,0
2017-08-22T21:38:13.634Z,0
2017-08-22T21:38:42.463Z,0
2017-08-22T21:39:10.419Z,0
2017-08-22T21:39:38.193Z,0
2017-08-22T21:40:06.149Z,0
2017-08-22T21:40:34.985Z,0
2017-08-22T21:41:04.803Z,0
2017-08-22T21:41:32.852Z,0
2017-08-22T21:42:01.675Z,0
2017-08-22T21:42:29.730Z,0
2017-08-22T21:42:57.688Z,0
2017-08-22T21:43:25.733Z,0
2017-08-22T21:43:53.785Z,0
2017-08-22T21:44:21.749Z,0
2017-08-22T21:44:50.583Z,0
2017-08-22T21:45:19.422Z,0
2017-08-22T21:45:47.492Z,0
2017-08-22T21:46:15.434Z,0
2017-08-22T21:46:44.277Z,0
2017-08-22T21:47:13.107Z,0
2017-08-22T21:47:41.071Z,0
2017-08-22T21:48:09.908Z,0
2017-08-22T21:48:38.744Z,0
2017-08-22T21:49:06.756Z,0
2017-08-22T21:49:34.810Z,0
2017-08-22T21:50:04.429Z,0
2017-08-22T21:50:32.397Z,0
2017-08-22T21:51:01.230Z,0
2017-08-22T21:51:29.186Z,0
2017-08-22T21:51:57.153Z,0
2017-08-22T21:52:25.191Z,0
2017-08-22T21:52:53.236Z,0
2017-08-22T21:53:21.276Z,0
2017-08-22T21:53:49.226Z,0
2017-08-22T21:54:17.268Z,0
2017-08-22T21:54:45.313Z,0
2017-08-22T21:55:14.143Z,0
2017-08-22T21:55:42.205Z,0
2017-08-22T21:56:11.183Z,0
2017-08-22T21:56:39.246Z,0
2017-08-22T21:57:07.220Z,0
2017-08-22T21:57:35.168Z,0
2017-08-22T21:58:03.237Z,0
2017-08-22T21:58:33.057Z,0
2017-08-22T21:59:01.882Z,0
2017-08-22T21:59:29.822Z,0
2017-08-22T21:59:57.859Z,0
2017-08-22T22:00:25.908Z,0
2017-08-22T22:00:56.297Z,0
2017-08-22T22:02:30.888Z,0
2017-08-22T22:02:58.932Z,0
2017-08-22T22:03:27.970Z,0
2017-08-22T22:03:56.803Z,0
2017-08-22T22:04:24.756Z,0
2017-08-22T22:04:53.589Z,0
2017-08-22T22:05:22.422Z,0
2017-08-22T22:05:50.372Z,0
2017-08-22T22:06:18.234Z,0
2017-08-22T22:06:46.194Z,0
2017-08-22T22:07:14.238Z,0
2017-08-22T22:07:42.191Z,0
2017-08-22T22:08:10.245Z,0
2017-08-22T22:08:38.301Z,0
2017-08-22T22:09:06.154Z,0
2017-08-22T22:09:36.541Z,0
2017-08-22T22:10:04.517Z,0
2017-08-22T22:10:33.251Z,0
2017-08-22T22:11:02.178Z,0
2017-08-22T22:11:30.236Z,0
2017-08-22T22:11:58.294Z,0
2017-08-22T22:12:26.260Z,0
2017-08-22T22:12:54.314Z,0
2017-08-22T22:13:22.365Z,0
2017-08-22T22:13:50.313Z,0
2017-08-22T22:14:18.356Z,0
2017-08-22T22:14:47.108Z,0
2017-08-22T22:15:16.037Z,0
2017-08-22T22:15:44.691Z,0
2017-08-22T22:16:12.646Z,0
2017-08-22T22:16:41.482Z,0
2017-08-22T22:17:09.541Z,0
2017-08-22T22:17:37.592Z,0
2017-08-22T22:18:06.423Z,0
2017-08-22T22:18:34.468Z,0
2017-08-22T22:19:02.522Z,0
2017-08-22T22:19:31.346Z,0
2017-08-22T22:19:59.392Z,0
2017-08-22T22:20:27.253Z,0
2017-08-22T22:20:55.295Z,0
2017-08-22T22:21:23.205Z,0
2017-08-22T22:21:51.259Z,0
2017-08-22T22:22:20.094Z,0
2017-08-22T22:22:48.139Z,0
2017-08-22T22:23:16.189Z,0
2017-08-22T22:23:44.258Z,0
2017-08-22T22:24:12.215Z,0
2017-08-22T22:24:41.042Z,0
2017-08-22T22:25:08.972Z,0
2017-08-22T22:25:37.710Z,0
2017-08-22T22:26:05.774Z,0
2017-08-22T22:26:33.875Z,0
2017-08-22T22:27:01.835Z,0
2017-08-22T22:27:29.889Z,0
2017-08-22T22:27:57.858Z,0
2017-08-22T22:28:26.595Z,0
2017-08-22T22:28:55.423Z,0
2017-08-22T22:29:25.042Z,0
2017-08-22T22:29:54.661Z,0
2017-08-22T22:30:23.497Z,0
2017-08-22T22:30:52.331Z,0
2017-08-22T22:31:20.384Z,0
2017-08-22T22:31:48.337Z,0
2017-08-22T22:32:17.062Z,0
2017-08-22T22:32:45.437Z,0
2017-08-22T22:33:14.253Z,0
2017-08-22T22:33:42.216Z,0
2017-08-22T22:34:10.171Z,0
2017-08-22T22:34:38.131Z,0
2017-08-22T22:35:06.974Z,0
2017-08-22T22:35:34.937Z,0
2017-08-22T22:36:02.915Z,0
2017-08-22T22:36:30.894Z,0
2017-08-22T22:36:58.893Z,0
2017-08-22T22:37:26.949Z,0
2017-08-22T22:37:55.001Z,0
2017-08-22T22:38:22.955Z,0
2017-08-22T22:38:50.994Z,0
2017-08-22T22:39:19.034Z,0
2017-08-22T22:39:46.993Z,0
2017-08-22T22:40:15.825Z,0
2017-08-22T22:41:50.363Z,0
2017-08-22T22:42:18.414Z,0
2017-08-22T22:42:46.451Z,0
2017-08-22T22:43:15.292Z,0
2017-08-22T22:43:44.120Z,0
2017-08-22T22:44:12.879Z,0
2017-08-22T22:44:40.931Z,0
2017-08-22T22:45:08.984Z,0
2017-08-22T22:45:36.936Z,0
2017-08-22T22:46:04.983Z,0
2017-08-22T22:46:33.030Z,0
2017-08-22T22:47:00.985Z,0
2017-08-22T22:47:28.946Z,0
2017-08-22T22:47:56.994Z,0
2017-08-22T22:48:25.038Z,0
2017-08-22T22:48:53.069Z,0
2017-08-22T22:49:21.046Z,0
2017-08-22T22:49:49.783Z,0
2017-08-22T22:50:17.737Z,0
2017-08-22T22:50:45.798Z,0
2017-08-22T22:51:13.854Z,0
2017-08-22T22:51:41.829Z,0
2017-08-22T22:52:10.668Z,0
2017-08-22T22:52:38.711Z,0
2017-08-22T22:53:06.754Z,0
2017-08-22T22:53:34.800Z,0
2017-08-22T22:54:02.852Z,0
2017-08-22T22:54:30.904Z,0
2017-08-22T22:55:00.518Z,0
2017-08-22T22:55:29.257Z,0
2017-08-22T22:55:58.085Z,0
2017-08-22T22:56:26.939Z,0
2017-08-22T22:56:55.125Z,0
2017-08-22T22:57:23.166Z,0
2017-08-22T22:57:51.210Z,0
2017-08-22T22:58:19.257Z,0
2017-08-22T22:58:47.295Z,0
2017-08-22T22:59:15.345Z,0
2017-08-22T22:59:43.297Z,0
2017-08-22T23:00:11.571Z,0
2017-08-22T23:00:39.529Z,0
2017-08-22T23:01:07.573Z,0
2017-08-22T23:01:35.630Z,0
2017-08-22T23:02:03.666Z,0
2017-08-22T23:02:32.492Z,0
2017-08-22T23:03:00.553Z,0
2017-08-22T23:03:30.078Z,0
2017-08-22T23:03:58.917Z,0
2017-08-22T23:04:26.968Z,0
2017-08-22T23:04:55.017Z,0
2017-08-22T23:05:23.079Z,0
2017-08-22T23:05:52.693Z,0
2017-08-22T23:06:20.745Z,0
2017-08-22T23:06:49.570Z,0
2017-08-22T23:07:17.538Z,0
2017-08-22T23:07:46.368Z,0
2017-08-22T23:08:14.409Z,0
2017-08-22T23:08:43.253Z,0
2017-08-22T23:09:11.214Z,0
2017-08-22T23:09:40.051Z,0
2017-08-22T23:10:08.004Z,0
2017-08-22T23:10:36.742Z,0
2017-08-22T23:11:04.772Z,0
2017-08-22T23:11:33.597Z,0
2017-08-22T23:12:01.792Z,0
2017-08-22T23:12:30.529Z,0
2017-08-22T23:12:58.568Z,0
2017-08-22T23:13:27.307Z,0
2017-08-22T23:13:55.363Z,0
2017-08-22T23:14:23.325Z,0
2017-08-22T23:14:51.368Z,0
2017-08-22T23:15:20.208Z,0
2017-08-22T23:15:48.177Z,0
2017-08-22T23:16:16.905Z,0
2017-08-22T23:16:44.963Z,0
2017-08-22T23:17:13.016Z,0
2017-08-22T23:17:41.840Z,0
2017-08-22T23:18:09.691Z,0
2017-08-22T23:18:38.390Z,0
2017-08-22T23:19:07.969Z,0
2017-08-22T23:19:36.612Z,0
2017-08-22T23:21:10.986Z,0
2017-08-22T23:21:40.516Z,0
2017-08-22T23:22:09.336Z,0
2017-08-22T23:22:37.295Z,0
2017-08-22T23:23:06.174Z,0
2017-08-22T23:23:34.225Z,0
2017-08-22T23:24:03.067Z,0
2017-08-22T23:24:31.110Z,0
2017-08-22T23:24:59.935Z,0
2017-08-22T23:25:27.987Z,0
2017-08-22T23:25:56.045Z,0
2017-08-22T23:26:24.874Z,0
2017-08-22T23:26:53.024Z,0
2017-08-22T23:27:21.763Z,0
2017-08-22T23:27:50.507Z,0
2017-08-22T23:28:19.237Z,0
2017-08-22T23:28:47.980Z,0
2017-08-22T23:29:16.799Z,0
2017-08-22T23:29:44.749Z,0
2017-08-22T23:30:13.589Z,0
2017-08-22T23:30:41.647Z,0
2017-08-22T23:31:09.722Z,0
2017-08-22T23:31:38.375Z,0
2017-08-22T23:32:06.327Z,0
2017-08-22T23:32:34.285Z,0
2017-08-22T23:33:03.115Z,0
2017-08-22T23:33:31.077Z,0
2017-08-22T23:33:59.043Z,0
2017-08-22T23:34:27.971Z,0
2017-08-22T23:34:57.498Z,0
2017-08-22T23:35:25.554Z,0
2017-08-22T23:35:53.521Z,0
2017-08-22T23:36:21.578Z,0
2017-08-22T23:36:50.414Z,0
2017-08-22T23:37:18.457Z,0
2017-08-22T23:37:48.072Z,0
2017-08-22T23:38:16.904Z,0
2017-08-22T23:38:45.736Z,0
2017-08-22T23:39:14.566Z,0
2017-08-22T23:39:42.519Z,0
2017-08-22T23:40:11.247Z,0
2017-08-22T23:40:41.654Z,0
2017-08-22T23:41:10.490Z,0
2017-08-22T23:41:38.537Z,0
2017-08-22T23:42:06.598Z,0
2017-08-22T23:42:34.961Z,0
2017-08-22T23:43:03.792Z,0
2017-08-22T23:43:32.636Z,0
2017-08-22T23:44:01.478Z,0
2017-08-22T23:44:29.520Z,0
2017-08-22T23:44:57.493Z,0
2017-08-22T23:45:25.543Z,0
2017-08-22T23:45:54.377Z,0
2017-08-22T23:46:22.437Z,0
2017-08-22T23:46:50.405Z,0
2017-08-22T23:47:18.271Z,0
2017-08-22T23:47:46.229Z,0
2017-08-22T23:48:14.109Z,0
2017-08-22T23:48:43.724Z,0
2017-08-22T23:49:11.802Z,0
2017-08-22T23:49:40.619Z,0
2017-08-22T23:50:08.664Z,0
2017-08-22T23:50:36.696Z,0
2017-08-22T23:51:06.300Z,0
2017-08-22T23:51:34.252Z,0
2017-08-22T23:52:02.202Z,0
2017-08-22T23:52:30.247Z,0
2017-08-22T23:52:59.862Z,0
2017-08-22T23:53:29.475Z,0
2017-08-22T23:53:57.433Z,0
2017-08-22T23:54:26.258Z,0
2017-08-22T23:54:55.015Z,0
2017-08-22T23:55:23.853Z,0
2017-08-22T23:55:51.897Z,0
2017-08-22T23:56:20.737Z,0
2017-08-22T23:56:49.675Z,0
2017-08-22T23:57:17.732Z,0
2017-08-22T23:57:45.764Z,0
2017-08-22T23:58:14.496Z,0
2017-08-22T23:58:42.545Z,0
2017-08-22T23:59:10.587Z,0
